Orbital elements of SL-16 DEB
| Launched | 24 December 1992 |
| Flight ended | – |
| Launch site | Tyuratam Missile and Space Center, Kazakhstan (Also known as Baikonur Cosmodrome) |
| Owner | Commonwealth of Independent States (former USSR) |
| NORAD ID | 22392 |
| Date fetched |
Epoch osculation |
Inc. [°] |
Ecc. | RA asc node [hr] |
Arg Peri. [°] |
Mean anom [°] |
Mean motion [rev/day] |
Abs. mag |
| Date fetched |
Epoch osculation |
Inc. [°] |
Ecc. | RA asc node [hr] |
Arg Peri. [°] |
Mean anom [°] |
Mean motion [rev/day] |
Abs. mag |
| 2026 May 06 17:57 | 2026 May 05 13:37:57 | 70.8839 | 0.00729 | 12.0130 | 51.5979 | 20.4543 | 14.89245 | – |
| 2026 May 05 17:57 | 2026 May 05 13:37:57 | 70.8839 | 0.00729 | 12.0130 | 51.5979 | 20.4543 | 14.89245 | – |
| 2026 May 04 17:57 | 2026 Apr 30 14:41:01 | 70.8853 | 0.00727 | 12.7994 | 60.2515 | 20.4543 | 14.89245 | – |
| 2026 May 03 17:57 | 2026 Apr 30 14:41:01 | 70.8853 | 0.00727 | 12.7994 | 60.2515 | 20.4543 | 14.89245 | – |
| 2026 May 02 17:57 | 2026 Apr 30 14:41:01 | 70.8853 | 0.00727 | 12.7994 | 60.2515 | 20.4543 | 14.89245 | – |
| 2026 May 01 17:56 | 2026 Apr 30 14:41:01 | 70.8853 | 0.00727 | 12.7994 | 60.2515 | 20.4543 | 14.89245 | – |
| 2026 Apr 30 17:56 | 2026 Apr 30 14:41:01 | 70.8853 | 0.00727 | 12.7994 | 60.2515 | 20.4543 | 14.89245 | – |
| 2026 Apr 29 17:57 | 2026 Apr 24 08:22:38 | 70.8852 | 0.00726 | 13.7931 | 71.3023 | 20.4543 | 14.89245 | – |
| 2026 Apr 28 17:56 | 2026 Apr 24 08:22:38 | 70.8852 | 0.00726 | 13.7931 | 71.3023 | 20.4543 | 14.89245 | – |
| 2026 Apr 27 17:58 | 2026 Apr 24 08:22:38 | 70.8852 | 0.00726 | 13.7931 | 71.3023 | 20.4543 | 14.89245 | – |
| 2026 Apr 26 17:58 | 2026 Apr 24 08:22:38 | 70.8852 | 0.00726 | 13.7931 | 71.3023 | 20.4543 | 14.89245 | – |
| 2026 Apr 25 17:58 | 2026 Apr 24 08:22:38 | 70.8852 | 0.00726 | 13.7931 | 71.3023 | 20.4543 | 14.89245 | – |
| 2026 Apr 24 17:59 | 2026 Apr 24 08:22:38 | 70.8852 | 0.00726 | 13.7931 | 71.3023 | 20.4543 | 14.89245 | – |
| 2026 Apr 23 17:57 | 2026 Apr 19 07:19:13 | 70.8851 | 0.00726 | 14.5933 | 80.1638 | 20.4543 | 14.89245 | – |
| 2026 Apr 22 17:57 | 2026 Apr 19 07:19:13 | 70.8851 | 0.00726 | 14.5933 | 80.1638 | 20.4543 | 14.89245 | – |
| 2026 Apr 21 17:57 | 2026 Apr 19 07:19:13 | 70.8851 | 0.00726 | 14.5933 | 80.1638 | 20.4543 | 14.89245 | – |
| 2026 Apr 20 17:57 | 2026 Apr 19 07:19:13 | 70.8851 | 0.00726 | 14.5933 | 80.1638 | 20.4543 | 14.89245 | – |
| 2026 Apr 19 17:58 | 2026 Apr 19 07:19:13 | 70.8851 | 0.00726 | 14.5933 | 80.1638 | 20.4543 | 14.89245 | – |
| 2026 Apr 18 17:56 | 2026 Apr 13 07:48:57 | 70.8846 | 0.00728 | 15.5418 | 90.6632 | 20.4543 | 14.89245 | – |
| 2026 Apr 16 17:57 | 2026 Apr 13 07:48:57 | 70.8846 | 0.00728 | 15.5418 | 90.6632 | 20.4543 | 14.89245 | – |
| 2026 Apr 14 17:57 | 2026 Apr 13 07:48:57 | 70.8846 | 0.00728 | 15.5418 | 90.6632 | 20.4543 | 14.89245 | – |
| 2026 Apr 13 17:57 | 2026 Apr 13 07:48:57 | 70.8846 | 0.00728 | 15.5418 | 90.6632 | 20.4543 | 14.89245 | – |
| 2026 Apr 12 17:57 | 2026 Apr 08 11:53:46 | 70.8847 | 0.00729 | 16.3081 | 99.1410 | 20.4543 | 14.89245 | – |
| 2026 Apr 11 17:57 | 2026 Apr 08 11:53:46 | 70.8847 | 0.00729 | 16.3081 | 99.1410 | 20.4543 | 14.89245 | – |
| 2026 Apr 10 17:58 | 2026 Apr 08 11:53:46 | 70.8847 | 0.00729 | 16.3081 | 99.1410 | 20.4543 | 14.89245 | – |
| 2026 Apr 09 18:01 | 2026 Apr 08 11:53:46 | 70.8847 | 0.00729 | 16.3081 | 99.1410 | 20.4543 | 14.89245 | – |